createdAt,value
2017-07-23T00:00:28.831Z,1005.38
2017-07-23T00:01:28.810Z,1005.39
2017-07-23T00:02:28.791Z,1005.37
2017-07-23T00:03:28.779Z,1005.36
2017-07-23T00:04:28.754Z,1005.35
2017-07-23T00:05:28.732Z,1005.36
2017-07-23T00:06:28.716Z,1005.36
2017-07-23T00:07:28.693Z,1005.31
2017-07-23T00:08:28.673Z,1005.27
2017-07-23T00:09:28.652Z,1005.24
2017-07-23T00:10:28.633Z,1005.24
2017-07-23T00:11:28.613Z,1005.19
2017-07-23T00:12:28.592Z,1005.18
2017-07-23T00:13:28.572Z,1005.12
2017-07-23T00:14:28.556Z,1005.17
2017-07-23T00:15:28.534Z,1005.19
2017-07-23T00:16:28.521Z,1005.25
2017-07-23T00:17:28.495Z,1005.31
2017-07-23T00:18:28.476Z,1005.33
2017-07-23T00:19:28.473Z,1005.3
2017-07-23T00:20:28.443Z,1005.25
2017-07-23T00:21:28.416Z,1005.24
2017-07-23T00:22:28.396Z,1005.22
2017-07-23T00:23:28.378Z,1005.23
2017-07-23T00:24:28.357Z,1005.24
2017-07-23T00:25:28.335Z,1005.28
2017-07-23T00:26:28.324Z,1005.18
2017-07-23T00:27:28.300Z,1005.21
2017-07-23T00:28:28.279Z,1005.22
2017-07-23T00:29:28.261Z,1005.32
2017-07-23T00:30:28.234Z,1005.25
2017-07-23T00:31:28.219Z,1005.23
2017-07-23T00:32:28.200Z,1005.26
2017-07-23T00:33:28.178Z,1005.24
2017-07-23T00:34:28.160Z,1005.26
2017-07-23T00:35:28.140Z,1005.25
2017-07-23T00:36:28.127Z,1005.25
2017-07-23T00:37:28.100Z,1005.27
2017-07-23T00:38:28.082Z,1005.27
2017-07-23T00:39:28.057Z,1005.3
2017-07-23T00:40:28.040Z,1005.37
2017-07-23T00:41:28.350Z,1005.36
2017-07-23T00:42:28.361Z,1005.38
2017-07-23T00:43:28.376Z,1005.37
2017-07-23T00:44:28.357Z,1005.36
2017-07-23T00:45:28.274Z,1005.41
2017-07-23T00:46:28.257Z,1005.36
2017-07-23T00:47:28.313Z,1005.34
2017-07-23T00:48:28.135Z,1005.34
2017-07-23T00:49:28.200Z,1005.24
2017-07-23T00:50:28.196Z,1005.24
2017-07-23T00:51:28.153Z,1005.23
2017-07-23T00:52:27.982Z,1005.21
2017-07-23T00:53:28.116Z,1005.16
2017-07-23T00:54:27.868Z,1005.19
2017-07-23T00:55:28.112Z,1005.16
2017-07-23T00:56:28.125Z,1005.13
2017-07-23T00:57:27.914Z,1005.16
2017-07-23T00:58:28.113Z,1005.15
2017-07-23T00:59:28.088Z,1005.16
2017-07-23T01:00:28.073Z,1005.09
2017-07-23T01:01:28.045Z,1005.04
2017-07-23T01:02:27.984Z,1005.1
2017-07-23T01:03:27.907Z,1005.1
2017-07-23T01:04:27.894Z,1005.11
2017-07-23T01:05:27.888Z,1005.13
2017-07-23T01:06:27.858Z,1005.1
2017-07-23T01:07:27.842Z,1005.13
2017-07-23T01:08:27.805Z,1005.12
2017-07-23T01:09:27.565Z,1005.11
2017-07-23T01:10:27.711Z,1005.09
2017-07-23T01:11:27.746Z,1005.11
2017-07-23T01:12:27.731Z,1005.08
2017-07-23T01:13:27.709Z,1005.04
2017-07-23T01:14:27.674Z,1005.08
2017-07-23T01:15:27.341Z,1005.11
2017-07-23T01:16:27.326Z,1005.07
2017-07-23T01:17:27.303Z,1005.09
2017-07-23T01:18:27.281Z,1005.13
2017-07-23T01:19:27.262Z,1005.08
2017-07-23T01:20:27.241Z,1005.08
2017-07-23T01:21:27.219Z,1005.03
2017-07-23T01:22:27.200Z,1005
2017-07-23T01:23:27.184Z,1004.97
2017-07-23T01:24:27.163Z,1004.9
2017-07-23T01:25:27.143Z,1004.89
2017-07-23T01:26:27.121Z,1004.91
2017-07-23T01:27:27.103Z,1004.9
2017-07-23T01:28:27.082Z,1004.95
2017-07-23T01:29:27.063Z,1004.94
2017-07-23T01:30:27.041Z,1004.95
2017-07-23T01:31:27.022Z,1004.98
2017-07-23T01:32:27.001Z,1005
2017-07-23T01:33:26.981Z,1004.98
2017-07-23T01:34:26.966Z,1005.05
2017-07-23T01:35:26.946Z,1004.97
2017-07-23T01:36:26.922Z,1004.97
2017-07-23T01:37:26.901Z,1004.95
2017-07-23T01:38:26.887Z,1004.94
2017-07-23T01:39:26.864Z,1004.96
2017-07-23T01:40:26.843Z,1004.95
2017-07-23T01:41:26.822Z,1004.98
2017-07-23T01:42:26.802Z,1004.97
2017-07-23T01:43:26.785Z,1004.98
2017-07-23T01:44:26.760Z,1005.05
2017-07-23T01:45:26.741Z,1005.01
2017-07-23T01:46:26.722Z,1005.06
2017-07-23T01:47:26.705Z,1005.03
2017-07-23T01:48:26.681Z,1005.08
2017-07-23T01:49:26.660Z,1005.06
2017-07-23T01:50:26.640Z,1005.08
2017-07-23T01:51:26.620Z,1005.11
2017-07-23T01:52:26.607Z,1005.12
2017-07-23T01:53:26.581Z,1005.21
2017-07-23T01:54:26.560Z,1005.16
2017-07-23T01:55:26.545Z,1005.15
2017-07-23T01:56:26.522Z,1005.15
2017-07-23T01:57:26.506Z,1005.12
2017-07-23T01:58:26.503Z,1005.18
2017-07-23T01:59:26.462Z,1005.15
2017-07-23T02:00:26.446Z,1005.09
2017-07-23T02:01:26.430Z,1005.04
2017-07-23T02:02:26.402Z,1004.94
2017-07-23T02:03:26.391Z,1004.9
2017-07-23T02:04:26.362Z,1004.87
2017-07-23T02:05:26.342Z,1004.83
2017-07-23T02:06:26.321Z,1004.81
2017-07-23T02:07:26.300Z,1004.77
2017-07-23T02:08:26.280Z,1004.76
2017-07-23T02:09:26.261Z,1004.69
2017-07-23T02:10:26.243Z,1004.69
2017-07-23T02:11:26.221Z,1004.61
2017-07-23T02:12:26.202Z,1004.6
2017-07-23T02:13:26.179Z,1004.57
2017-07-23T02:14:26.159Z,1004.62
2017-07-23T02:15:26.140Z,1004.61
2017-07-23T02:16:26.171Z,1004.63
2017-07-23T02:17:26.097Z,1004.62
2017-07-23T02:18:26.079Z,1004.68
2017-07-23T02:19:26.059Z,1004.67
2017-07-23T02:20:26.042Z,1004.65
2017-07-23T02:21:26.017Z,1004.64
2017-07-23T02:22:25.994Z,1004.66
2017-07-23T02:23:25.976Z,1004.67
2017-07-23T02:24:25.966Z,1004.67
2017-07-23T02:25:25.936Z,1004.65
2017-07-23T02:26:25.917Z,1004.67
2017-07-23T02:27:25.895Z,1004.63
2017-07-23T02:28:25.876Z,1004.6
2017-07-23T02:29:25.855Z,1004.63
2017-07-23T02:30:25.838Z,1004.64
2017-07-23T02:31:25.816Z,1004.71
2017-07-23T02:32:25.803Z,1004.77
2017-07-23T02:33:25.777Z,1004.72
2017-07-23T02:34:25.754Z,1004.74
2017-07-23T02:35:25.735Z,1004.72
2017-07-23T02:36:25.715Z,1004.79
2017-07-23T02:37:25.696Z,1004.81
2017-07-23T02:38:25.677Z,1004.82
2017-07-23T02:39:25.653Z,1004.85
2017-07-23T02:40:25.634Z,1004.85
2017-07-23T02:41:25.621Z,1004.89
2017-07-23T02:42:25.594Z,1004.85
2017-07-23T02:43:25.591Z,1004.86
2017-07-23T02:44:25.555Z,1004.82
2017-07-23T02:45:25.536Z,1004.77
2017-07-23T02:46:25.512Z,1004.66
2017-07-23T02:47:25.493Z,1004.63
2017-07-23T02:48:25.476Z,1004.58
2017-07-23T02:49:25.451Z,1004.59
2017-07-23T02:50:25.431Z,1004.57
2017-07-23T02:51:25.413Z,1004.54
2017-07-23T02:52:25.393Z,1004.56
2017-07-23T02:53:25.372Z,1004.53
2017-07-23T02:54:25.353Z,1004.5
2017-07-23T02:55:25.334Z,1004.52
2017-07-23T02:56:25.310Z,1004.47
2017-07-23T02:57:25.291Z,1004.49
2017-07-23T02:58:25.270Z,1004.51
2017-07-23T02:59:25.250Z,1004.49
2017-07-23T03:00:25.230Z,1004.51
2017-07-23T03:01:25.210Z,1004.47
2017-07-23T03:02:25.189Z,1004.48
2017-07-23T03:03:25.178Z,1004.51
2017-07-23T03:04:25.147Z,1004.49
2017-07-23T03:05:25.431Z,1004.55
2017-07-23T03:06:25.108Z,1004.56
2017-07-23T03:07:25.089Z,1004.58
2017-07-23T03:08:25.068Z,1004.63
2017-07-23T03:09:25.048Z,1004.61
2017-07-23T03:10:25.027Z,1004.66
2017-07-23T03:11:25.008Z,1004.69
2017-07-23T03:12:24.987Z,1004.78
2017-07-23T03:13:24.970Z,1004.83
2017-07-23T03:14:24.945Z,1004.84
2017-07-23T03:15:24.925Z,1004.82
2017-07-23T03:16:24.907Z,1004.86
2017-07-23T03:17:24.889Z,1004.91
2017-07-23T03:18:24.870Z,1004.9
2017-07-23T03:19:24.851Z,1004.9
2017-07-23T03:20:24.829Z,1004.93
2017-07-23T03:21:24.810Z,1004.94
2017-07-23T03:22:24.784Z,1004.98
2017-07-23T03:23:24.766Z,1005
2017-07-23T03:24:24.747Z,1005.02
2017-07-23T03:25:24.725Z,1005.04
2017-07-23T03:26:24.707Z,1005.03
2017-07-23T03:27:24.686Z,1005.05
2017-07-23T03:28:24.664Z,1005.06
2017-07-23T03:29:24.643Z,1005.06
2017-07-23T03:30:24.628Z,1005.08
2017-07-23T03:31:24.604Z,1005.11
2017-07-23T03:32:24.589Z,1005.17
2017-07-23T03:33:24.561Z,1005.13
2017-07-23T03:34:24.542Z,1005.16
2017-07-23T03:35:24.525Z,1005.13
2017-07-23T03:36:24.502Z,1005.18
2017-07-23T03:37:24.486Z,1005.14
2017-07-23T03:38:24.463Z,1005.14
2017-07-23T03:39:24.444Z,1005.13
2017-07-23T03:40:24.425Z,1005.1
2017-07-23T03:41:24.402Z,1005.09
2017-07-23T03:42:24.384Z,1005.08
2017-07-23T03:43:24.416Z,1005.1
2017-07-23T03:44:24.340Z,1005.05
2017-07-23T03:45:24.321Z,1005.06
2017-07-23T03:46:24.301Z,1005.05
2017-07-23T03:47:24.279Z,1005.09
2017-07-23T03:48:24.261Z,1005.03
2017-07-23T03:49:24.240Z,1005.03
2017-07-23T03:50:24.272Z,1005.05
2017-07-23T03:51:24.200Z,1005.04
2017-07-23T03:52:24.178Z,1005.05
2017-07-23T03:53:24.161Z,1005.06
2017-07-23T03:54:24.141Z,1005.06
2017-07-23T03:55:24.121Z,1005.08
2017-07-23T03:56:24.101Z,1005.07
2017-07-23T03:57:24.080Z,1005.07
2017-07-23T03:58:24.059Z,1005.1
2017-07-23T03:59:24.042Z,1005.13
2017-07-23T04:00:24.020Z,1005.16
2017-07-23T04:01:24.001Z,1005.24
2017-07-23T04:02:23.976Z,1005.27
2017-07-23T04:03:23.958Z,1005.34
2017-07-23T04:04:23.940Z,1005.37
2017-07-23T04:05:23.922Z,1005.37
2017-07-23T04:06:23.900Z,1005.36
2017-07-23T04:07:23.878Z,1005.35
2017-07-23T04:08:23.857Z,1005.38
2017-07-23T04:09:23.837Z,1005.41
2017-07-23T04:10:23.816Z,1005.47
2017-07-23T04:11:23.797Z,1005.47
2017-07-23T04:12:23.778Z,1005.47
2017-07-23T04:13:23.756Z,1005.5
2017-07-23T04:14:23.737Z,1005.5
2017-07-23T04:15:23.716Z,1005.51
2017-07-23T04:16:23.697Z,1005.45
2017-07-23T04:17:23.676Z,1005.49
2017-07-23T04:18:23.657Z,1005.47
2017-07-23T04:19:23.632Z,1005.49
2017-07-23T04:20:23.614Z,1005.51
2017-07-23T04:21:23.619Z,1005.54
2017-07-23T04:22:23.584Z,1005.52
2017-07-23T04:23:23.555Z,1005.54
2017-07-23T04:24:23.535Z,1005.6
2017-07-23T04:25:23.516Z,1005.65
2017-07-23T04:26:23.497Z,1005.62
2017-07-23T04:27:23.474Z,1005.6
2017-07-23T04:28:23.456Z,1005.57
2017-07-23T04:29:23.432Z,1005.56
2017-07-23T04:30:23.417Z,1005.59
2017-07-23T04:31:23.393Z,1005.54
2017-07-23T04:32:23.373Z,1005.55
2017-07-23T04:33:23.352Z,1005.58
2017-07-23T04:34:23.333Z,1005.63
2017-07-23T04:35:23.313Z,1005.65
2017-07-23T04:36:23.295Z,1005.72
2017-07-23T04:37:23.274Z,1005.74
2017-07-23T04:38:23.256Z,1005.74
2017-07-23T04:39:23.233Z,1005.72
2017-07-23T04:40:23.210Z,1005.74
2017-07-23T04:41:23.191Z,1005.83
2017-07-23T04:42:23.170Z,1005.71
2017-07-23T04:43:23.152Z,1005.72
2017-07-23T04:44:23.134Z,1005.79
2017-07-23T04:45:23.111Z,1005.8
2017-07-23T04:46:23.091Z,1005.79
2017-07-23T04:47:23.069Z,1005.83
2017-07-23T04:48:23.048Z,1005.79
2017-07-23T04:49:23.033Z,1005.82
2017-07-23T04:50:23.008Z,1005.82
2017-07-23T04:51:22.988Z,1005.82
2017-07-23T04:52:22.969Z,1005.79
2017-07-23T04:53:22.949Z,1005.77
2017-07-23T04:54:22.927Z,1005.79
2017-07-23T04:55:22.957Z,1005.79
2017-07-23T04:56:22.891Z,1005.77
2017-07-23T04:57:22.869Z,1005.77
2017-07-23T04:58:22.844Z,1005.76
2017-07-23T04:59:22.825Z,1005.77
2017-07-23T05:00:22.805Z,1005.72
2017-07-23T05:01:22.794Z,1005.68
2017-07-23T05:02:22.768Z,1005.69
2017-07-23T05:03:22.744Z,1005.68
2017-07-23T05:04:22.723Z,1005.65
2017-07-23T05:05:22.701Z,1005.67
2017-07-23T05:06:22.690Z,1005.77
2017-07-23T05:07:22.661Z,1005.83
2017-07-23T05:08:22.642Z,1005.83
2017-07-23T05:09:22.621Z,1005.92
2017-07-23T05:10:22.601Z,1005.9
2017-07-23T05:11:22.579Z,1005.89
2017-07-23T05:12:22.561Z,1005.87
2017-07-23T05:13:22.540Z,1005.85
2017-07-23T05:14:22.520Z,1005.87
2017-07-23T05:15:22.500Z,1005.9
2017-07-23T05:16:22.480Z,1005.91
2017-07-23T05:17:22.459Z,1005.93
2017-07-23T05:18:22.447Z,1005.92
2017-07-23T05:19:22.419Z,1005.93
2017-07-23T05:20:22.399Z,1005.89
2017-07-23T05:21:22.382Z,1005.92
2017-07-23T05:22:22.355Z,1005.93
2017-07-23T05:23:22.339Z,1005.91
2017-07-23T05:24:22.617Z,1006
2017-07-23T05:25:22.301Z,1005.99
2017-07-23T05:26:22.276Z,1005.96
2017-07-23T05:27:22.258Z,1005.95
2017-07-23T05:28:22.236Z,1006.01
2017-07-23T05:29:22.216Z,1006
2017-07-23T05:30:22.197Z,1006
2017-07-23T05:31:22.177Z,1006
2017-07-23T05:32:22.154Z,1005.98
2017-07-23T05:33:22.136Z,1006.01
2017-07-23T05:34:22.118Z,1006.03
2017-07-23T05:35:22.097Z,1006
2017-07-23T05:36:22.076Z,1006.02
2017-07-23T05:37:22.055Z,1006.01
2017-07-23T05:38:22.043Z,1006
2017-07-23T05:39:22.012Z,1005.98
2017-07-23T05:40:21.994Z,1006.01
2017-07-23T05:41:21.974Z,1006.02
2017-07-23T05:42:21.954Z,1006.09
2017-07-23T05:43:21.937Z,1006.07
2017-07-23T05:44:21.918Z,1006.06
2017-07-23T05:45:21.895Z,1006.01
2017-07-23T05:46:21.876Z,1006.07
2017-07-23T05:47:21.855Z,1006.04
2017-07-23T05:48:21.834Z,1006.06
2017-07-23T05:49:21.816Z,1006.08
2017-07-23T05:50:21.799Z,1006.12
2017-07-23T05:51:21.778Z,1006.12
2017-07-23T05:52:21.754Z,1006.14
2017-07-23T05:53:21.739Z,1006.11
2017-07-23T05:54:21.720Z,1006.13
2017-07-23T05:55:21.699Z,1006.08
2017-07-23T05:56:21.681Z,1006.12
2017-07-23T05:57:21.662Z,1006.1
2017-07-23T05:58:21.643Z,1006.13
2017-07-23T05:59:21.629Z,1006.1
2017-07-23T06:00:21.607Z,1006.07
2017-07-23T06:01:21.590Z,1006.14
2017-07-23T06:02:21.570Z,1006.17
2017-07-23T06:03:21.551Z,1006.16
2017-07-23T06:04:21.533Z,1006.18
2017-07-23T06:05:21.518Z,1006.15
2017-07-23T06:06:21.499Z,1006.19
2017-07-23T06:07:21.482Z,1006.16
2017-07-23T06:08:21.465Z,1006.18
2017-07-23T06:09:21.448Z,1006.2
2017-07-23T06:10:21.430Z,1006.23
2017-07-23T06:11:21.414Z,1006.23
2017-07-23T06:12:21.448Z,1006.18
2017-07-23T06:13:21.375Z,1006.23
2017-07-23T06:14:21.364Z,1006.23
2017-07-23T06:15:21.349Z,1006.18
2017-07-23T06:16:21.331Z,1006.17
2017-07-23T06:17:21.317Z,1006.18
2017-07-23T06:18:21.303Z,1006.22
2017-07-23T06:19:21.283Z,1006.18
2017-07-23T06:20:21.269Z,1006.18
2017-07-23T06:21:21.254Z,1006.17
2017-07-23T06:22:21.236Z,1006.22
2017-07-23T06:23:21.223Z,1006.23
2017-07-23T06:24:21.460Z,1006.21
2017-07-23T06:25:21.193Z,1006.24
2017-07-23T06:26:21.177Z,1006.25
2017-07-23T06:27:21.163Z,1006.27
2017-07-23T06:28:21.153Z,1006.28
2017-07-23T06:29:21.133Z,1006.3
2017-07-23T06:30:21.118Z,1006.24
2017-07-23T06:31:21.153Z,1006.37
2017-07-23T06:32:21.086Z,1006.34
2017-07-23T06:33:21.086Z,1006.44
2017-07-23T06:34:21.060Z,1006.4
2017-07-23T06:35:21.046Z,1006.35
2017-07-23T06:36:21.028Z,1006.36
2017-07-23T06:37:21.015Z,1006.39
2017-07-23T06:38:20.998Z,1006.39
2017-07-23T06:39:20.984Z,1006.41
2017-07-23T06:40:20.967Z,1006.44
2017-07-23T06:41:20.957Z,1006.53
2017-07-23T06:42:20.947Z,1006.43
2017-07-23T06:43:20.925Z,1006.37
2017-07-23T06:44:20.913Z,1006.41
2017-07-23T06:45:20.898Z,1006.44
2017-07-23T06:46:20.887Z,1006.46
2017-07-23T06:47:20.874Z,1006.48
2017-07-23T06:48:20.863Z,1006.47
2017-07-23T06:49:20.849Z,1006.46
2017-07-23T06:50:20.831Z,1006.58
2017-07-23T06:51:20.819Z,1006.44
2017-07-23T06:52:20.805Z,1006.47
2017-07-23T06:53:20.792Z,1006.51
2017-07-23T06:54:20.777Z,1006.51
2017-07-23T06:55:20.770Z,1006.54
2017-07-23T06:56:20.751Z,1006.48
2017-07-23T06:57:20.740Z,1006.5
2017-07-23T06:58:20.726Z,1006.55
2017-07-23T06:59:20.713Z,1006.56
2017-07-23T07:00:20.710Z,1006.58
2017-07-23T07:01:20.687Z,1006.59
2017-07-23T07:02:20.685Z,1006.59
2017-07-23T07:03:20.661Z,1006.59
2017-07-23T07:04:20.649Z,1006.58
2017-07-23T07:05:20.636Z,1006.66
2017-07-23T07:06:20.624Z,1006.56
2017-07-23T07:07:20.615Z,1006.6
2017-07-23T07:08:20.600Z,1006.58
2017-07-23T07:09:20.588Z,1006.59
2017-07-23T07:10:20.577Z,1006.58
2017-07-23T07:11:20.564Z,1006.56
2017-07-23T07:12:20.551Z,1006.58
2017-07-23T07:13:20.539Z,1006.56
2017-07-23T07:14:20.528Z,1006.54
2017-07-23T07:15:20.519Z,1006.58
2017-07-23T07:16:20.501Z,1006.59
2017-07-23T07:17:20.490Z,1006.58
2017-07-23T07:18:20.482Z,1006.64
2017-07-23T07:19:20.471Z,1006.65
2017-07-23T07:20:20.457Z,1006.62
2017-07-23T07:21:20.449Z,1006.61
2017-07-23T07:22:20.436Z,1006.6
2017-07-23T07:23:20.426Z,1006.55
2017-07-23T07:24:20.413Z,1006.66
2017-07-23T07:25:20.403Z,1006.63
2017-07-23T07:26:20.392Z,1006.62
2017-07-23T07:27:20.381Z,1006.66
2017-07-23T07:28:20.368Z,1006.67
2017-07-23T07:29:20.363Z,1006.65
2017-07-23T07:30:20.352Z,1006.59
2017-07-23T07:31:20.342Z,1006.63
2017-07-23T07:32:20.333Z,1006.61
2017-07-23T07:33:20.324Z,1006.64
2017-07-23T07:34:20.312Z,1006.68
2017-07-23T07:35:20.303Z,1006.66
2017-07-23T07:36:20.296Z,1006.72
2017-07-23T07:37:20.290Z,1006.73
2017-07-23T07:38:20.279Z,1006.73
2017-07-23T07:39:20.271Z,1006.77
2017-07-23T07:40:20.261Z,1006.74
2017-07-23T07:41:20.248Z,1006.75
2017-07-23T07:42:20.241Z,1006.82
2017-07-23T07:43:20.231Z,1006.72
2017-07-23T07:44:20.227Z,1006.76
2017-07-23T07:45:20.211Z,1006.77
2017-07-23T07:46:20.203Z,1006.72
2017-07-23T07:47:20.193Z,1006.7
2017-07-23T07:48:20.182Z,1006.76
2017-07-23T07:49:20.172Z,1006.78
2017-07-23T07:50:20.161Z,1006.72
2017-07-23T07:51:20.155Z,1006.82
2017-07-23T07:52:20.145Z,1006.81
2017-07-23T07:53:20.133Z,1006.78
2017-07-23T07:54:20.124Z,1006.79
2017-07-23T07:55:20.115Z,1006.79
2017-07-23T07:56:20.101Z,1006.79
2017-07-23T07:57:20.098Z,1006.81
2017-07-23T07:58:20.084Z,1006.84
2017-07-23T07:59:20.072Z,1006.81
2017-07-23T08:00:20.058Z,1006.9
2017-07-23T08:01:20.048Z,1006.89
2017-07-23T08:02:20.036Z,1006.96
2017-07-23T08:03:20.023Z,1006.93
2017-07-23T08:04:20.012Z,1006.97
2017-07-23T08:05:20.154Z,1006.96
2017-07-23T08:06:19.981Z,1006.93
2017-07-23T08:07:19.968Z,1006.94
2017-07-23T08:08:19.954Z,1006.92
2017-07-23T08:09:19.942Z,1006.94
2017-07-23T08:10:19.979Z,1006.98
2017-07-23T08:11:19.912Z,1006.94
2017-07-23T08:12:19.902Z,1006.97
2017-07-23T08:13:19.885Z,1006.9
2017-07-23T08:14:19.866Z,1006.91
2017-07-23T08:15:19.856Z,1006.97
2017-07-23T08:16:19.838Z,1006.87
2017-07-23T08:17:19.826Z,1006.96
2017-07-23T08:18:19.829Z,1006.98
2017-07-23T08:19:19.799Z,1007.02
2017-07-23T08:20:19.781Z,1006.97
2017-07-23T08:21:19.769Z,1006.99
2017-07-23T08:22:19.756Z,1006.94
2017-07-23T08:23:19.739Z,1007
2017-07-23T08:24:19.728Z,1006.99
2017-07-23T08:25:19.713Z,1007.02
2017-07-23T08:26:19.699Z,1006.98
2017-07-23T08:27:19.683Z,1007.02
2017-07-23T08:28:19.724Z,1007.08
2017-07-23T08:29:19.662Z,1007.04
2017-07-23T08:30:19.642Z,1007.15
2017-07-23T08:31:19.631Z,1007.08
2017-07-23T08:32:19.666Z,1007.13
2017-07-23T08:33:19.601Z,1007.04
2017-07-23T08:34:19.588Z,1007.05
2017-07-23T08:35:19.582Z,1007.05
2017-07-23T08:36:19.563Z,1007.03
2017-07-23T08:37:19.554Z,1007.06
2017-07-23T08:38:19.540Z,1007.05
2017-07-23T08:39:19.528Z,1007.08
2017-07-23T08:40:19.513Z,1007.07
2017-07-23T08:41:19.505Z,1007.09
2017-07-23T08:42:19.494Z,1007.07
2017-07-23T08:43:19.487Z,1007.06
2017-07-23T08:44:19.476Z,1007.1
2017-07-23T08:45:19.466Z,1007.05
2017-07-23T08:46:19.460Z,1006.98
2017-07-23T08:47:19.446Z,1006.99
2017-07-23T08:48:19.438Z,1007.07
2017-07-23T08:49:19.430Z,1007.15
2017-07-23T08:50:19.418Z,1007.13
2017-07-23T08:51:19.412Z,1007.16
2017-07-23T08:52:19.402Z,1007.13
2017-07-23T08:53:19.395Z,1007.12
2017-07-23T08:54:19.385Z,1007.12
2017-07-23T08:55:19.371Z,1007.2
2017-07-23T08:56:19.366Z,1007.11
2017-07-23T08:57:19.357Z,1007.14
2017-07-23T08:58:19.343Z,1007.14
2017-07-23T08:59:19.334Z,1007.18
2017-07-23T09:00:19.324Z,1007.15
2017-07-23T09:01:19.315Z,1007.22
2017-07-23T09:02:19.300Z,1007.2
2017-07-23T09:03:19.288Z,1007.27
2017-07-23T09:04:19.275Z,1007.28
2017-07-23T09:05:19.265Z,1007.27
2017-07-23T09:06:19.257Z,1007.29
2017-07-23T09:07:19.539Z,1007.29
2017-07-23T09:08:19.228Z,1007.3
2017-07-23T09:09:19.265Z,1007.29
2017-07-23T09:10:19.202Z,1007.32
2017-07-23T09:11:19.185Z,1007.33
2017-07-23T09:12:19.175Z,1007.32
2017-07-23T09:13:19.158Z,1007.4
2017-07-23T09:14:19.143Z,1007.35
2017-07-23T09:15:19.131Z,1007.36
2017-07-23T09:16:19.116Z,1007.35
2017-07-23T09:17:19.100Z,1007.33
2017-07-23T09:18:19.085Z,1007.4
2017-07-23T09:19:19.096Z,1007.39
2017-07-23T09:20:19.058Z,1007.37
2017-07-23T09:21:19.041Z,1007.33
2017-07-23T09:22:19.024Z,1007.35
2017-07-23T09:23:19.011Z,1007.33
2017-07-23T09:24:18.994Z,1007.28
2017-07-23T09:25:18.979Z,1007.39
2017-07-23T09:26:18.964Z,1007.35
2017-07-23T09:27:18.953Z,1007.42
2017-07-23T09:28:18.934Z,1007.4
2017-07-23T09:29:18.920Z,1007.44
2017-07-23T09:30:18.905Z,1007.39
2017-07-23T09:31:18.894Z,1007.38
2017-07-23T09:32:18.876Z,1007.37
2017-07-23T09:33:18.862Z,1007.33
2017-07-23T09:34:18.852Z,1007.36
2017-07-23T09:35:18.835Z,1007.34
2017-07-23T09:36:18.823Z,1007.39
2017-07-23T09:37:18.809Z,1007.38
2017-07-23T09:38:18.796Z,1007.41
2017-07-23T09:39:18.786Z,1007.43
2017-07-23T09:40:18.767Z,1007.47
2017-07-23T09:41:18.755Z,1007.47
2017-07-23T09:42:18.741Z,1007.47
2017-07-23T09:43:18.724Z,1007.48
2017-07-23T09:44:18.708Z,1007.52
2017-07-23T09:45:18.700Z,1007.55
2017-07-23T09:46:18.684Z,1007.51
2017-07-23T09:47:18.665Z,1007.52
2017-07-23T09:48:18.648Z,1007.55
2017-07-23T09:49:18.631Z,1007.54
2017-07-23T09:50:18.618Z,1007.55
2017-07-23T09:51:18.850Z,1007.56
2017-07-23T09:52:18.586Z,1007.52
2017-07-23T09:53:18.567Z,1007.52
2017-07-23T09:54:18.550Z,1007.51
2017-07-23T09:55:18.538Z,1007.53
2017-07-23T09:56:18.520Z,1007.48
2017-07-23T09:57:18.504Z,1007.48
2017-07-23T09:58:18.488Z,1007.57
2017-07-23T09:59:18.471Z,1007.53
2017-07-23T10:00:18.458Z,1007.52
2017-07-23T10:01:18.439Z,1007.55
2017-07-23T10:02:18.422Z,1007.49
2017-07-23T10:03:18.403Z,1007.47
2017-07-23T10:04:18.384Z,1007.48
2017-07-23T10:05:18.369Z,1007.4
2017-07-23T10:06:18.354Z,1007.44
2017-07-23T10:07:18.333Z,1007.46
2017-07-23T10:08:18.317Z,1007.41
2017-07-23T10:09:18.303Z,1007.39
2017-07-23T10:10:18.286Z,1007.38
2017-07-23T10:11:18.268Z,1007.49
2017-07-23T10:12:18.258Z,1007.4
2017-07-23T10:13:18.239Z,1007.4
2017-07-23T10:14:18.221Z,1007.33
2017-07-23T10:15:18.206Z,1007.29
2017-07-23T10:16:18.192Z,1007.29
2017-07-23T10:17:18.178Z,1007.26
2017-07-23T10:18:18.161Z,1007.31
2017-07-23T10:19:18.148Z,1007.28
2017-07-23T10:20:18.131Z,1007.27
2017-07-23T10:21:18.114Z,1007.32
2017-07-23T10:22:18.104Z,1007.34
2017-07-23T10:23:18.088Z,1007.38
2017-07-23T10:24:18.119Z,1007.39
2017-07-23T10:25:18.057Z,1007.41
2017-07-23T10:26:18.040Z,1007.37
2017-07-23T10:27:18.033Z,1007.41
2017-07-23T10:28:18.006Z,1007.38
2017-07-23T10:29:17.987Z,1007.42
2017-07-23T10:30:17.988Z,1007.38
2017-07-23T10:31:17.955Z,1007.36
2017-07-23T10:32:17.939Z,1007.38
2017-07-23T10:33:17.921Z,1007.32
2017-07-23T10:34:17.902Z,1007.4
2017-07-23T10:35:17.890Z,1007.4
2017-07-23T10:36:17.871Z,1007.38
2017-07-23T10:37:17.854Z,1007.41
2017-07-23T10:38:17.842Z,1007.38
2017-07-23T10:39:17.819Z,1007.42
2017-07-23T10:40:17.802Z,1007.4
2017-07-23T10:41:17.786Z,1007.45
2017-07-23T10:42:17.769Z,1007.43
2017-07-23T10:43:17.755Z,1007.42
2017-07-23T10:44:17.731Z,1007.49
2017-07-23T10:45:17.716Z,1007.47
2017-07-23T10:46:17.699Z,1007.49
2017-07-23T10:47:17.680Z,1007.45
2017-07-23T10:48:17.659Z,1007.45
2017-07-23T10:49:17.645Z,1007.41
2017-07-23T10:50:17.627Z,1007.43
2017-07-23T10:51:17.607Z,1007.4
2017-07-23T10:52:17.589Z,1007.38
2017-07-23T10:53:17.571Z,1007.39
2017-07-23T10:54:17.555Z,1007.41
2017-07-23T10:55:17.535Z,1007.4
2017-07-23T10:56:17.517Z,1007.43
2017-07-23T10:57:17.499Z,1007.52
2017-07-23T10:58:17.484Z,1007.47
2017-07-23T10:59:17.460Z,1007.49
2017-07-23T11:00:17.445Z,1007.5
2017-07-23T11:01:17.429Z,1007.45
2017-07-23T11:02:17.408Z,1007.45
2017-07-23T11:03:17.396Z,1007.4
2017-07-23T11:04:17.373Z,1007.43
2017-07-23T11:05:17.354Z,1007.36
2017-07-23T11:06:17.334Z,1007.38
2017-07-23T11:07:17.317Z,1007.37
2017-07-23T11:08:17.299Z,1007.39
2017-07-23T11:09:17.282Z,1007.36
2017-07-23T11:10:17.265Z,1007.32
2017-07-23T11:11:17.242Z,1007.34
2017-07-23T11:12:17.233Z,1007.33
2017-07-23T11:13:17.216Z,1007.29
2017-07-23T11:14:17.199Z,1007.31
2017-07-23T11:15:17.182Z,1007.25
2017-07-23T11:16:17.171Z,1007.25
2017-07-23T11:17:17.148Z,1007.35
2017-07-23T11:18:17.133Z,1007.27
2017-07-23T11:19:17.116Z,1007.49
2017-07-23T11:20:17.102Z,1007.37
2017-07-23T11:21:17.084Z,1007.34
2017-07-23T11:22:17.067Z,1007.3
2017-07-23T11:23:17.045Z,1007.37
2017-07-23T11:24:17.031Z,1007.37
2017-07-23T11:25:17.017Z,1007.33
2017-07-23T11:26:16.999Z,1007.35
2017-07-23T11:27:16.980Z,1007.37
2017-07-23T11:28:16.961Z,1007.39
2017-07-23T11:29:16.945Z,1007.43
2017-07-23T11:30:16.926Z,1007.43
2017-07-23T11:31:16.911Z,1007.44
2017-07-23T11:32:16.892Z,1007.47
2017-07-23T11:33:16.875Z,1007.39
2017-07-23T11:34:16.857Z,1007.37
2017-07-23T11:35:16.842Z,1007.44
2017-07-23T11:36:16.827Z,1007.45
2017-07-23T11:37:16.807Z,1007.43
2017-07-23T11:38:16.795Z,1007.49
2017-07-23T11:39:16.772Z,1007.49
2017-07-23T11:40:16.752Z,1007.48
2017-07-23T11:41:16.738Z,1007.42
2017-07-23T11:42:16.718Z,1007.42
2017-07-23T11:43:16.702Z,1007.37
2017-07-23T11:44:16.739Z,1007.42
2017-07-23T11:45:16.673Z,1007.39
2017-07-23T11:46:16.653Z,1007.35
2017-07-23T11:47:16.635Z,1007.44
2017-07-23T11:48:16.620Z,1007.4
2017-07-23T11:49:16.601Z,1007.38
2017-07-23T11:50:16.583Z,1007.27
2017-07-23T11:51:16.566Z,1007.32
2017-07-23T11:52:16.557Z,1007.39
2017-07-23T11:53:16.534Z,1007.35
2017-07-23T11:54:16.815Z,1007.45
2017-07-23T11:55:16.500Z,1007.46
2017-07-23T11:56:16.482Z,1007.39
2017-07-23T11:57:16.463Z,1007.42
2017-07-23T11:58:16.445Z,1007.38
2017-07-23T11:59:16.429Z,1007.35
2017-07-23T12:00:16.411Z,1007.4
2017-07-23T12:01:16.395Z,1007.39
2017-07-23T12:02:16.375Z,1007.36
2017-07-23T12:03:16.359Z,1007.32
2017-07-23T12:04:16.340Z,1007.33
2017-07-23T12:05:16.327Z,1007.36
2017-07-23T12:06:16.306Z,1007.31
2017-07-23T12:07:16.293Z,1007.34
2017-07-23T12:08:16.273Z,1007.34